createdAt,value
2023-05-13T00:02:44.808Z,8.23
2023-05-13T00:07:46.644Z,13.60
2023-05-13T00:12:48.720Z,10.30
2023-05-13T00:17:50.530Z,10.20
2023-05-13T00:22:52.420Z,13.68
2023-05-13T00:27:57.166Z,9.68
2023-05-13T00:32:59.053Z,10.65
2023-05-13T00:38:00.755Z,10.60
2023-05-13T00:43:02.604Z,11.77
2023-05-13T00:48:06.310Z,11.90
2023-05-13T00:53:10.247Z,9.88
2023-05-13T00:58:12.463Z,12.48
2023-05-13T01:03:20.542Z,12.45
2023-05-13T01:08:27.611Z,10.63
2023-05-13T01:13:36.913Z,10.48
2023-05-13T01:18:46.725Z,9.95
2023-05-13T01:23:48.473Z,11.57
2023-05-13T01:28:52.833Z,10.75
2023-05-13T01:33:57.526Z,11.85
2023-05-13T01:39:00.348Z,13.38
2023-05-13T01:44:04.649Z,9.98
2023-05-13T01:49:07.814Z,13.98
2023-05-13T01:54:12.162Z,11.88
2023-05-13T01:59:20.870Z,13.18
2023-05-13T02:04:23.031Z,10.55
2023-05-13T02:09:24.722Z,11.50
2023-05-13T02:14:28.907Z,12.75
2023-05-13T02:19:30.781Z,16.13
2023-05-13T02:24:32.508Z,13.20
2023-05-13T02:29:34.583Z,12.45
2023-05-13T02:34:36.357Z,14.05
2023-05-13T02:39:38.143Z,15.48
2023-05-13T02:44:40.487Z,13.98
2023-05-13T02:49:45.925Z,13.43
2023-05-13T02:54:47.779Z,12.87
2023-05-13T02:59:49.871Z,14.77
2023-05-13T03:04:54.950Z,14.03
2023-05-13T03:09:56.673Z,14.60
2023-05-13T03:15:00.673Z,13.03
2023-05-13T03:20:02.573Z,15.10
2023-05-13T03:25:08.238Z,17.57
2023-05-13T03:30:17.034Z,13.17
2023-05-13T03:35:24.897Z,14.60
2023-05-13T03:40:27.053Z,12.43
2023-05-13T03:45:28.870Z,14.18
2023-05-13T03:50:36.005Z,18.77
2023-05-13T03:55:38.795Z,13.77
2023-05-13T04:00:46.883Z,21.90
2023-05-13T04:05:49.380Z,14.70
2023-05-13T04:10:51.110Z,15.02
2023-05-13T04:15:55.563Z,17.17
2023-05-13T04:20:57.224Z,16.10
2023-05-13T04:26:02.810Z,12.30
2023-05-13T04:31:07.124Z,16.15
2023-05-13T04:36:15.206Z,18.08
2023-05-13T04:41:18.172Z,11.02
2023-05-13T04:46:21.192Z,10.18
2023-05-13T04:51:25.548Z,13.35
2023-05-13T04:56:30.109Z,11.55
2023-05-13T05:01:31.904Z,12.48
2023-05-13T05:06:33.735Z,16.67
2023-05-13T05:11:37.930Z,14.40
2023-05-13T05:16:44.652Z,14.45
2023-05-13T05:21:52.675Z,15.05
2023-05-13T05:26:57.252Z,13.95
2023-05-13T05:31:59.593Z,14.05
2023-05-13T05:37:04.603Z,12.02
2023-05-13T05:42:09.026Z,19.55
2023-05-13T05:47:11.392Z,14.40
2023-05-13T05:52:13.374Z,15.48
2023-05-13T05:57:15.607Z,12.65
2023-05-13T06:02:17.986Z,16.05
2023-05-13T06:07:22.261Z,11.07
2023-05-13T06:12:24.191Z,11.55
2023-05-13T06:17:28.339Z,13.65
2023-05-13T06:22:30.295Z,12.00
2023-05-13T06:27:34.262Z,13.32
2023-05-13T06:32:36.629Z,14.02
2023-05-13T06:37:43.775Z,11.07
2023-05-13T06:42:48.788Z,14.68
2023-05-13T06:47:56.426Z,12.77
2023-05-13T06:53:01.266Z,12.43
2023-05-13T06:58:02.962Z,13.90
2023-05-13T07:03:05.818Z,15.15
2023-05-13T07:08:09.780Z,12.57
2023-05-13T07:13:12.429Z,16.92
2023-05-13T07:18:18.821Z,13.45
2023-05-13T07:23:20.519Z,11.73
2023-05-13T07:28:22.230Z,12.00
2023-05-13T07:33:26.073Z,15.50
2023-05-13T07:38:31.106Z,13.68
2023-05-13T07:43:35.474Z,17.15
2023-05-13T07:48:37.127Z,14.05
2023-05-13T07:53:38.827Z,14.80
2023-05-13T07:58:44.030Z,14.10
2023-05-13T08:03:46.205Z,14.43
2023-05-13T08:08:49.204Z,15.32
2023-05-13T08:13:51.295Z,14.40
2023-05-13T08:18:57.648Z,15.03
2023-05-13T08:24:04.093Z,16.08
2023-05-13T08:29:08.686Z,14.00
2023-05-13T08:34:12.899Z,15.57
2023-05-13T08:39:19.142Z,13.10
2023-05-13T08:44:28.628Z,14.90
2023-05-13T08:49:30.660Z,12.10
2023-05-13T08:54:32.741Z,14.00
2023-05-13T08:59:36.937Z,12.60
2023-05-13T09:04:42.342Z,15.75
2023-05-13T09:09:45.383Z,13.90
2023-05-13T09:14:47.130Z,17.02
2023-05-13T09:19:48.957Z,14.02
2023-05-13T09:24:56.831Z,10.20
2023-05-13T09:30:01.788Z,12.82
2023-05-13T09:35:18.839Z,12.02
2023-05-13T09:40:21.086Z,11.88
2023-05-13T09:45:26.222Z,14.02
2023-05-13T09:50:29.144Z,14.40
2023-05-13T09:55:31.175Z,11.38
2023-05-13T10:00:41.836Z,21.42
2023-05-13T10:05:45.264Z,15.18
2023-05-13T10:10:48.150Z,15.05
2023-05-13T10:15:51.134Z,14.90
2023-05-13T10:20:55.314Z,9.77
2023-05-13T10:26:01.443Z,10.27
2023-05-13T10:31:05.468Z,18.50
2023-05-13T10:36:28.814Z,10.25
2023-05-13T10:42:03.595Z,10.25
2023-05-13T10:47:07.753Z,11.45
2023-05-13T10:52:14.297Z,10.32
2023-05-13T10:57:30.425Z,13.30
2023-05-13T11:02:39.540Z,13.68
2023-05-13T11:07:41.314Z,10.02
2023-05-13T11:12:45.407Z,12.75
2023-05-13T11:17:49.233Z,9.23
2023-05-13T11:22:56.172Z,8.45
2023-05-13T11:27:58.064Z,11.50
2023-05-13T11:33:01.686Z,7.00
2023-05-13T11:38:04.361Z,23.70
2023-05-13T11:43:06.299Z,11.63
2023-05-13T11:48:24.191Z,16.48
2023-05-13T11:53:25.969Z,6.75
2023-05-13T11:58:27.739Z,10.45
2023-05-13T12:03:31.699Z,8.40
2023-05-13T12:08:34.226Z,6.53
2023-05-13T12:13:36.026Z,6.07
2023-05-13T12:18:37.957Z,8.02
2023-05-13T12:23:42.098Z,9.10
2023-05-13T12:28:44.126Z,7.45
2023-05-13T12:33:49.236Z,10.43
2023-05-13T12:39:02.179Z,8.98
2023-05-13T12:44:14.651Z,15.40
2023-05-13T12:49:22.312Z,6.95
2023-05-13T12:54:24.185Z,6.15
2023-05-13T12:59:29.357Z,11.52
2023-05-13T13:04:31.158Z,7.85
2023-05-13T13:09:36.170Z,7.45
2023-05-13T13:14:42.563Z,9.05
2023-05-13T13:19:49.037Z,9.63
2023-05-13T13:24:50.861Z,9.63
2023-05-13T13:29:52.879Z,7.47
2023-05-13T13:34:54.617Z,7.45
2023-05-13T13:39:58.970Z,12.02
2023-05-13T13:45:03.742Z,5.65
2023-05-13T13:50:10.267Z,8.60
2023-05-13T13:55:14.922Z,8.32
2023-05-13T14:00:19.098Z,6.25
2023-05-13T14:05:25.868Z,10.70
2023-05-13T14:10:27.628Z,8.10
2023-05-13T14:15:38.968Z,7.68
2023-05-13T14:20:40.904Z,6.68
2023-05-13T14:25:42.630Z,6.15
2023-05-13T14:30:46.682Z,8.00
2023-05-13T14:35:48.353Z,3.60
2023-05-13T14:40:55.679Z,4.35
2023-05-13T14:45:57.519Z,6.65
2023-05-13T14:50:59.318Z,7.15
2023-05-13T14:56:01.142Z,5.72
2023-05-13T15:01:03.073Z,4.82
2023-05-13T15:06:07.788Z,4.60
2023-05-13T15:11:09.577Z,5.40
2023-05-13T15:16:13.781Z,8.07
2023-05-13T15:21:15.756Z,8.70
2023-05-13T15:26:20.144Z,8.98
2023-05-13T15:31:21.917Z,5.15
2023-05-13T15:36:23.739Z,5.88
2023-05-13T15:41:28.218Z,6.30
2023-05-13T15:46:33.623Z,6.72
2023-05-13T15:51:37.888Z,6.43
2023-05-13T15:56:44.396Z,4.22
2023-05-13T16:01:49.297Z,9.65
2023-05-13T16:06:51.053Z,8.98
2023-05-13T16:11:55.145Z,8.73
2023-05-13T16:16:59.984Z,6.43
2023-05-13T16:22:34.817Z,6.75
2023-05-13T16:27:43.081Z,3.85
2023-05-13T16:32:48.878Z,5.13
2023-05-13T16:37:50.878Z,7.53
2023-05-13T16:42:57.960Z,7.32
2023-05-13T16:48:01.129Z,7.57
2023-05-13T16:53:02.979Z,6.18
2023-05-13T16:58:07.007Z,6.82
2023-05-13T17:03:08.800Z,6.38
2023-05-13T17:08:13.585Z,10.25
2023-05-13T17:13:15.332Z,9.55
2023-05-13T17:18:22.266Z,8.68
2023-05-13T17:23:26.279Z,5.82
2023-05-13T17:28:27.987Z,8.90
2023-05-13T17:33:34.618Z,7.32
2023-05-13T17:38:36.624Z,10.80
2023-05-13T17:43:38.337Z,8.25
2023-05-13T17:48:40.144Z,11.40
2023-05-13T17:53:44.329Z,9.15
2023-05-13T17:58:48.213Z,12.68
2023-05-13T18:03:50.091Z,16.02
2023-05-13T18:08:54.343Z,8.23
2023-05-13T18:14:01.111Z,13.35
2023-05-13T18:19:02.957Z,8.50
2023-05-13T18:24:05.173Z,16.83
2023-05-13T18:29:06.957Z,13.43
2023-05-13T18:34:08.956Z,11.60
2023-05-13T18:39:11.267Z,15.65
2023-05-13T18:44:15.634Z,14.40
2023-05-13T18:49:20.388Z,16.50
2023-05-13T18:54:27.920Z,15.63
2023-05-13T18:59:29.613Z,15.07
2023-05-13T19:04:32.073Z,10.15
2023-05-13T19:09:39.248Z,12.77
2023-05-13T19:14:43.848Z,12.65
2023-05-13T19:19:45.635Z,11.68
2023-05-13T19:24:47.415Z,13.30
2023-05-13T19:29:49.420Z,12.98
2023-05-13T19:34:53.433Z,12.32
2023-05-13T19:39:55.273Z,10.43
2023-05-13T19:44:56.981Z,13.63
2023-05-13T19:50:00.931Z,15.38
2023-05-13T19:55:02.659Z,17.02
2023-05-13T20:00:05.616Z,14.05
2023-05-13T20:05:10.413Z,16.23
2023-05-13T20:10:14.621Z,18.50
2023-05-13T20:15:18.497Z,19.95
2023-05-13T20:20:21.136Z,13.70
2023-05-13T20:25:27.690Z,17.20
2023-05-13T20:30:31.621Z,16.63
2023-05-13T20:35:36.986Z,15.40
2023-05-13T20:40:41.432Z,12.10
2023-05-13T20:45:43.659Z,16.27
2023-05-13T20:50:47.856Z,13.70
2023-05-13T20:55:52.079Z,16.40
2023-05-13T21:00:56.808Z,15.77
2023-05-13T21:05:58.573Z,15.60
2023-05-13T21:11:00.281Z,14.45
2023-05-13T21:16:05.754Z,15.07
2023-05-13T21:21:12.459Z,17.42
2023-05-13T21:26:14.166Z,17.35
2023-05-13T21:31:15.945Z,22.60
2023-05-13T21:36:17.715Z,15.70
2023-05-13T21:41:20.021Z,19.40
2023-05-13T21:46:26.459Z,21.33
2023-05-13T21:51:28.340Z,16.00
2023-05-13T21:56:32.311Z,21.40
2023-05-13T22:01:33.985Z,19.60
2023-05-13T22:06:35.855Z,18.58
2023-05-13T22:11:37.551Z,12.80
2023-05-13T22:16:41.627Z,14.00
2023-05-13T22:21:43.377Z,12.23
2023-05-13T22:26:49.795Z,10.25
2023-05-13T22:31:53.771Z,13.50
2023-05-13T22:36:57.922Z,13.25
2023-05-13T22:42:02.435Z,12.63
2023-05-13T22:47:04.243Z,11.25
2023-05-13T22:52:08.666Z,9.52
2023-05-13T22:57:10.380Z,6.72
2023-05-13T23:02:14.324Z,6.60
2023-05-13T23:07:16.020Z,12.85
2023-05-13T23:12:23.396Z,9.43
2023-05-13T23:17:27.835Z,7.38
2023-05-13T23:22:31.751Z,13.77
2023-05-13T23:27:36.090Z,8.32
2023-05-13T23:32:40.782Z,8.35
2023-05-13T23:37:44.618Z,6.80
2023-05-13T23:42:51.131Z,7.32
2023-05-13T23:47:53.071Z,6.70
2023-05-13T23:52:59.508Z,10.98
2023-05-13T23:58:01.199Z,6.40
